createdAt,value
2023-05-20T00:00:55.597Z,61.72
2023-05-20T00:03:22.955Z,61.75
2023-05-20T00:05:50.204Z,61.77
2023-05-20T00:08:18.874Z,61.92
2023-05-20T00:10:45.779Z,61.98
2023-05-20T00:13:12.807Z,62.04
2023-05-20T00:15:39.672Z,62.12
2023-05-20T00:18:06.827Z,62.07
2023-05-20T00:20:33.862Z,62.12
2023-05-20T00:23:01.015Z,62.21
2023-05-20T00:25:27.979Z,62.18
2023-05-20T00:27:54.865Z,62.17
2023-05-20T00:30:22.381Z,62.25
2023-05-20T00:32:49.514Z,62.24
2023-05-20T00:35:16.628Z,62.38
2023-05-20T00:37:59.816Z,62.35
2023-05-20T00:40:27.174Z,62.43
2023-05-20T00:42:54.843Z,62.50
2023-05-20T00:45:21.833Z,62.48
2023-05-20T00:47:48.970Z,62.53
2023-05-20T00:50:16.879Z,62.48
2023-05-20T00:52:45.629Z,62.52
2023-05-20T00:55:12.516Z,62.55
2023-05-20T00:57:39.429Z,62.58
2023-05-20T01:00:08.116Z,62.57
2023-05-20T01:02:35.123Z,62.63
2023-05-20T01:05:02.478Z,62.64
2023-05-20T01:07:29.471Z,62.59
2023-05-20T01:09:56.475Z,62.65
2023-05-20T01:12:30.883Z,62.69
2023-05-20T01:15:06.800Z,62.62
2023-05-20T01:17:33.983Z,62.61
2023-05-20T01:20:02.324Z,62.62
2023-05-20T01:22:29.506Z,62.59
2023-05-20T01:24:57.376Z,62.68
2023-05-20T01:27:26.881Z,62.67
2023-05-20T01:29:54.455Z,62.70
2023-05-20T01:32:23.267Z,62.61
2023-05-20T01:34:51.276Z,62.56
2023-05-20T01:37:19.908Z,62.52
2023-05-20T01:39:47.024Z,62.56
2023-05-20T01:42:14.275Z,62.66
2023-05-20T01:44:42.405Z,62.57
2023-05-20T01:47:09.319Z,62.48
2023-05-20T01:49:36.221Z,62.62
2023-05-20T01:52:03.766Z,62.59
2023-05-20T01:54:30.873Z,62.72
2023-05-20T01:56:57.897Z,62.66
2023-05-20T01:59:25.028Z,62.65
2023-05-20T02:01:52.008Z,62.60
2023-05-20T02:04:19.365Z,62.59
2023-05-20T02:06:46.603Z,62.59
2023-05-20T02:09:14.669Z,62.60
2023-05-20T02:11:41.598Z,62.61
2023-05-20T02:14:08.683Z,62.60
2023-05-20T02:16:35.747Z,62.63
2023-05-20T02:19:03.037Z,62.52
2023-05-20T02:21:30.011Z,62.47
2023-05-20T02:23:57.012Z,62.51
2023-05-20T02:26:23.863Z,62.45
2023-05-20T02:28:51.113Z,62.31
2023-05-20T02:31:18.227Z,62.28
2023-05-20T02:33:45.877Z,62.20
2023-05-20T02:36:12.925Z,62.04
2023-05-20T02:38:40.064Z,61.98
2023-05-20T02:41:06.999Z,61.88
2023-05-20T02:43:34.041Z,61.82
2023-05-20T02:46:01.385Z,61.61
2023-05-20T02:48:28.663Z,61.51
2023-05-20T02:50:55.923Z,61.35
2023-05-20T02:53:23.079Z,61.32
2023-05-20T02:55:50.753Z,61.19
2023-05-20T02:58:17.898Z,60.89
2023-05-20T03:00:45.078Z,60.87
2023-05-20T03:03:13.715Z,60.79
2023-05-20T03:05:42.682Z,60.70
2023-05-20T03:08:10.164Z,60.66
2023-05-20T03:10:40.617Z,60.56
2023-05-20T03:13:09.197Z,60.50
2023-05-20T03:15:40.486Z,60.40
2023-05-20T03:18:08.660Z,60.34
2023-05-20T03:20:37.153Z,60.32
2023-05-20T03:23:07.636Z,60.25
2023-05-20T03:25:36.975Z,60.13
2023-05-20T03:28:04.256Z,60.03
2023-05-20T03:30:31.715Z,59.89
2023-05-20T03:32:58.899Z,59.69
2023-05-20T03:35:26.626Z,59.78
2023-05-20T03:37:54.734Z,59.84
2023-05-20T03:40:23.088Z,59.81
2023-05-20T03:42:53.018Z,59.71
2023-05-20T03:45:20.999Z,59.71
2023-05-20T03:47:57.928Z,59.79
2023-05-20T03:50:25.014Z,59.84
2023-05-20T03:52:51.965Z,59.77
2023-05-20T03:55:20.756Z,59.75
2023-05-20T03:57:47.779Z,59.72
2023-05-20T04:00:16.992Z,59.76
2023-05-20T04:02:44.145Z,59.73
2023-05-20T04:05:12.050Z,59.72
2023-05-20T04:07:39.619Z,59.83
2023-05-20T04:10:08.149Z,59.87
2023-05-20T04:12:36.897Z,59.91
2023-05-20T04:15:04.253Z,59.86
2023-05-20T04:17:43.936Z,59.83
2023-05-20T04:20:11.973Z,59.81
2023-05-20T04:22:40.059Z,59.88
2023-05-20T04:25:08.142Z,59.90
2023-05-20T04:27:35.283Z,59.87
2023-05-20T04:30:02.854Z,59.89
2023-05-20T04:32:32.101Z,59.83
2023-05-20T04:35:00.150Z,59.87
2023-05-20T04:37:27.302Z,59.94
2023-05-20T04:39:54.290Z,60.01
2023-05-20T04:42:22.562Z,59.95
2023-05-20T04:44:49.731Z,59.95
2023-05-20T04:47:16.655Z,59.89
2023-05-20T04:49:43.928Z,59.88
2023-05-20T04:52:11.034Z,59.93
2023-05-20T04:54:40.443Z,59.90
2023-05-20T04:57:07.809Z,59.88
2023-05-20T04:59:35.471Z,59.74
2023-05-20T05:02:02.897Z,59.53
2023-05-20T05:04:29.990Z,59.56
2023-05-20T05:06:57.245Z,59.46
2023-05-20T05:09:24.398Z,59.36
2023-05-20T05:11:52.417Z,59.39
2023-05-20T05:14:19.636Z,59.26
2023-05-20T05:16:46.686Z,59.08
2023-05-20T05:19:13.941Z,58.86
2023-05-20T05:21:41.336Z,58.95
2023-05-20T05:24:08.771Z,58.93
2023-05-20T05:26:36.103Z,58.85
2023-05-20T05:29:03.605Z,58.77
2023-05-20T05:31:30.865Z,58.68
2023-05-20T05:33:58.532Z,58.34
2023-05-20T05:36:28.461Z,58.11
2023-05-20T05:38:56.217Z,57.98
2023-05-20T05:41:23.170Z,57.74
2023-05-20T05:43:52.071Z,57.34
2023-05-20T05:46:19.148Z,57.07
2023-05-20T05:48:49.113Z,56.67
2023-05-20T05:51:17.311Z,56.41
2023-05-20T05:53:44.603Z,56.13
2023-05-20T05:56:11.727Z,55.83
2023-05-20T05:58:38.725Z,55.55
2023-05-20T06:01:07.105Z,55.17
2023-05-20T06:03:35.473Z,54.94
2023-05-20T06:06:02.849Z,54.94
2023-05-20T06:08:30.165Z,54.72
2023-05-20T06:10:57.042Z,54.59
2023-05-20T06:13:24.177Z,54.38
2023-05-20T06:15:51.144Z,54.05
2023-05-20T06:18:18.102Z,53.53
2023-05-20T06:20:45.418Z,53.13
2023-05-20T06:23:12.593Z,52.76
2023-05-20T06:25:51.235Z,52.21
2023-05-20T06:28:19.145Z,51.77
2023-05-20T06:30:46.139Z,51.39
2023-05-20T06:33:13.298Z,51.08
2023-05-20T06:35:40.273Z,50.82
2023-05-20T06:38:07.420Z,50.52
2023-05-20T06:40:34.352Z,50.13
2023-05-20T06:43:01.408Z,49.64
2023-05-20T06:45:48.872Z,49.13
2023-05-20T06:48:36.040Z,48.65
2023-05-20T06:51:04.282Z,48.29
2023-05-20T06:53:31.190Z,47.95
2023-05-20T06:55:58.436Z,47.78
2023-05-20T06:58:26.436Z,47.13
2023-05-20T07:00:55.145Z,46.04
2023-05-20T07:03:22.092Z,45.51
2023-05-20T07:05:49.194Z,44.94
2023-05-20T07:08:16.259Z,43.84
2023-05-20T07:10:43.478Z,42.37
2023-05-20T07:13:10.571Z,40.56
2023-05-20T07:15:37.494Z,39.49
2023-05-20T07:18:05.097Z,39.23
2023-05-20T07:20:32.821Z,39.25
2023-05-20T07:23:04.514Z,39.38
2023-05-20T07:25:38.022Z,38.93
2023-05-20T07:28:05.181Z,38.60
2023-05-20T07:30:32.628Z,38.08
2023-05-20T07:33:20.304Z,37.41
2023-05-20T07:35:48.020Z,36.65
2023-05-20T07:38:15.186Z,36.02
2023-05-20T07:40:43.677Z,34.47
2023-05-20T07:43:11.026Z,32.55
2023-05-20T07:45:38.250Z,30.04
2023-05-20T07:48:08.896Z,27.78
2023-05-20T07:50:36.795Z,26.09
2023-05-20T07:53:04.363Z,24.47
2023-05-20T07:55:37.157Z,23.18
2023-05-20T07:58:05.245Z,21.88
2023-05-20T08:00:34.304Z,20.98
2023-05-20T08:03:03.084Z,20.62
2023-05-20T08:05:38.780Z,21.31
2023-05-20T08:08:06.231Z,22.42
2023-05-20T08:10:42.701Z,23.90
2023-05-20T08:13:10.055Z,25.33
2023-05-20T08:15:37.821Z,26.31
2023-05-20T08:18:05.047Z,27.31
2023-05-20T08:20:32.411Z,28.35
2023-05-20T08:22:59.491Z,29.33
2023-05-20T08:25:26.406Z,30.27
2023-05-20T08:27:54.011Z,30.99
2023-05-20T08:30:21.429Z,31.65
2023-05-20T08:32:49.196Z,32.17
2023-05-20T08:35:16.312Z,32.71
2023-05-20T08:37:43.312Z,33.09
2023-05-20T08:40:12.051Z,33.31
2023-05-20T08:42:43.708Z,33.56
2023-05-20T08:45:12.751Z,33.69
2023-05-20T08:47:42.491Z,34.00
2023-05-20T08:50:13.831Z,34.12
2023-05-20T08:52:49.311Z,34.32
2023-05-20T08:55:31.316Z,34.62
2023-05-20T08:57:58.575Z,34.72
2023-05-20T09:00:29.161Z,34.63
2023-05-20T09:02:58.029Z,34.61
2023-05-20T09:05:27.414Z,34.45
2023-05-20T09:08:05.519Z,34.42
2023-05-20T09:10:34.572Z,34.42
2023-05-20T09:13:02.913Z,34.59
2023-05-20T09:15:31.108Z,34.45
2023-05-20T09:18:03.733Z,34.78
2023-05-20T09:20:31.917Z,34.81
2023-05-20T09:23:02.686Z,34.84
2023-05-20T09:25:29.721Z,34.97
2023-05-20T09:27:56.654Z,35.02
2023-05-20T09:30:23.909Z,35.19
2023-05-20T09:32:55.540Z,35.39
2023-05-20T09:35:27.156Z,35.36
2023-05-20T09:37:56.655Z,35.38
2023-05-20T09:40:31.012Z,35.45
2023-05-20T09:43:04.590Z,35.27
2023-05-20T09:45:31.658Z,35.00
2023-05-20T09:47:59.149Z,35.05
2023-05-20T09:50:26.258Z,35.00
2023-05-20T09:52:53.778Z,34.88
2023-05-20T09:55:25.179Z,34.85
2023-05-20T09:57:52.124Z,34.76
2023-05-20T10:00:20.022Z,34.91
2023-05-20T10:02:48.890Z,34.98
2023-05-20T10:05:24.228Z,35.08
2023-05-20T10:08:03.530Z,35.11
2023-05-20T10:10:51.710Z,35.14
2023-05-20T10:13:27.689Z,34.75
2023-05-20T10:15:57.811Z,34.71
2023-05-20T10:18:42.928Z,34.87
2023-05-20T10:21:17.711Z,34.83
2023-05-20T10:23:44.843Z,34.72
2023-05-20T10:26:11.932Z,34.83
2023-05-20T10:28:40.987Z,34.65
2023-05-20T10:31:18.786Z,34.74
2023-05-20T10:33:46.211Z,34.81
2023-05-20T10:36:24.324Z,34.58
2023-05-20T10:38:58.271Z,34.44
2023-05-20T10:41:27.330Z,34.00
2023-05-20T10:44:04.289Z,34.05
2023-05-20T10:46:40.110Z,34.55
2023-05-20T10:49:22.302Z,35.11
2023-05-20T10:51:51.812Z,35.17
2023-05-20T10:54:18.864Z,35.35
2023-05-20T10:56:53.725Z,35.44
2023-05-20T10:59:24.236Z,34.79
2023-05-20T11:01:51.384Z,34.13
2023-05-20T11:04:19.754Z,34.09
2023-05-20T11:06:51.712Z,34.08
2023-05-20T11:09:18.797Z,34.55
2023-05-20T11:11:45.849Z,34.74
2023-05-20T11:14:17.400Z,34.69
2023-05-20T11:16:44.862Z,34.33
2023-05-20T11:19:16.784Z,34.47
2023-05-20T11:21:44.793Z,34.69
2023-05-20T11:24:12.879Z,34.78
2023-05-20T11:26:40.561Z,34.66
2023-05-20T11:29:07.851Z,34.46
2023-05-20T11:31:34.984Z,34.33
2023-05-20T11:34:02.497Z,34.00
2023-05-20T11:36:30.506Z,33.98
2023-05-20T11:38:58.975Z,34.18
2023-05-20T11:41:28.940Z,34.15
2023-05-20T11:43:59.508Z,33.88
2023-05-20T11:46:27.505Z,33.63
2023-05-20T11:48:55.132Z,33.55
2023-05-20T11:51:27.444Z,33.32
2023-05-20T11:53:59.829Z,33.38
2023-05-20T11:56:28.594Z,33.18
2023-05-20T11:58:57.920Z,33.24
2023-05-20T12:01:24.977Z,33.39
2023-05-20T12:03:52.697Z,33.24
2023-05-20T12:06:20.021Z,33.03
2023-05-20T12:08:47.696Z,33.13
2023-05-20T12:11:14.790Z,32.96
2023-05-20T12:13:44.277Z,32.86
2023-05-20T12:16:11.269Z,32.90
2023-05-20T12:18:38.367Z,32.96
2023-05-20T12:21:05.284Z,33.03
2023-05-20T12:23:34.329Z,33.01
2023-05-20T12:26:01.479Z,32.97
2023-05-20T12:28:29.481Z,32.81
2023-05-20T12:30:56.501Z,32.67
2023-05-20T12:33:23.423Z,32.59
2023-05-20T12:35:50.559Z,32.49
2023-05-20T12:38:17.862Z,32.52
2023-05-20T12:40:44.756Z,32.66
2023-05-20T12:43:11.677Z,32.75
2023-05-20T12:45:38.918Z,32.60
2023-05-20T12:48:08.103Z,32.21
2023-05-20T12:50:35.673Z,31.91
2023-05-20T12:53:03.048Z,31.82
2023-05-20T12:55:30.471Z,31.93
2023-05-20T12:57:57.399Z,31.80
2023-05-20T13:00:27.525Z,31.92
2023-05-20T13:02:55.086Z,31.88
2023-05-20T13:05:22.433Z,31.58
2023-05-20T13:07:51.970Z,31.27
2023-05-20T13:10:21.378Z,31.24
2023-05-20T13:12:48.607Z,31.31
2023-05-20T13:15:15.974Z,31.27
2023-05-20T13:17:43.026Z,31.23
2023-05-20T13:20:11.244Z,30.81
2023-05-20T13:22:38.253Z,30.82
2023-05-20T13:25:05.737Z,30.80
2023-05-20T13:27:32.642Z,30.63
2023-05-20T13:30:02.008Z,30.54
2023-05-20T13:32:29.034Z,30.69
2023-05-20T13:35:00.064Z,30.80
2023-05-20T13:37:27.368Z,30.84
2023-05-20T13:39:54.364Z,30.73
2023-05-20T13:42:21.610Z,30.71
2023-05-20T13:44:48.527Z,30.73
2023-05-20T13:47:15.385Z,30.47
2023-05-20T13:49:42.291Z,30.46
2023-05-20T13:52:09.224Z,30.57
2023-05-20T13:54:36.410Z,30.42
2023-05-20T13:57:07.960Z,30.28
2023-05-20T13:59:35.378Z,30.09
2023-05-20T14:02:03.330Z,30.18
2023-05-20T14:04:31.515Z,30.02
2023-05-20T14:06:59.502Z,30.00
2023-05-20T14:09:26.553Z,30.09
2023-05-20T14:11:53.640Z,29.95
2023-05-20T14:14:21.019Z,29.81
2023-05-20T14:16:48.175Z,29.82
2023-05-20T14:19:15.150Z,29.83
2023-05-20T14:21:42.271Z,29.77
2023-05-20T14:24:09.205Z,29.74
2023-05-20T14:26:36.200Z,29.60
2023-05-20T14:29:03.332Z,29.65
2023-05-20T14:31:30.235Z,29.56
2023-05-20T14:33:57.336Z,29.55
2023-05-20T14:36:24.277Z,29.46
2023-05-20T14:38:51.745Z,29.41
2023-05-20T14:41:18.817Z,29.47
2023-05-20T14:43:45.960Z,29.31
2023-05-20T14:46:13.030Z,29.43
2023-05-20T14:48:40.015Z,29.46
2023-05-20T14:51:06.950Z,29.52
2023-05-20T14:53:33.895Z,29.50
2023-05-20T14:56:01.027Z,29.51
2023-05-20T14:58:27.905Z,29.39
2023-05-20T15:00:54.823Z,29.44
2023-05-20T15:03:23.676Z,29.41
2023-05-20T15:05:50.905Z,29.69
2023-05-20T15:08:17.931Z,29.94
2023-05-20T15:10:44.922Z,30.02
2023-05-20T15:13:11.933Z,29.73
2023-05-20T15:15:38.987Z,29.56
2023-05-20T15:18:06.066Z,29.66
2023-05-20T15:20:33.104Z,29.65
2023-05-20T15:23:01.043Z,29.52
2023-05-20T15:25:28.083Z,29.68
2023-05-20T15:27:54.973Z,29.77
2023-05-20T15:30:23.153Z,29.91
2023-05-20T15:32:50.336Z,29.88
2023-05-20T15:35:17.522Z,30.02
2023-05-20T15:37:44.534Z,30.02
2023-05-20T15:40:12.290Z,29.98
2023-05-20T15:42:39.342Z,30.09
2023-05-20T15:45:07.413Z,29.93
2023-05-20T15:47:34.523Z,30.00
2023-05-20T15:50:05.378Z,30.10
2023-05-20T15:52:32.500Z,30.09
2023-05-20T15:54:59.524Z,30.22
2023-05-20T15:57:26.401Z,30.58
2023-05-20T15:59:53.532Z,30.69
2023-05-20T16:02:20.966Z,30.76
2023-05-20T16:04:48.478Z,30.71
2023-05-20T16:07:15.719Z,30.69
2023-05-20T16:09:43.084Z,30.54
2023-05-20T16:12:10.127Z,30.72
2023-05-20T16:14:37.087Z,30.84
2023-05-20T16:17:04.446Z,30.88
2023-05-20T16:19:31.541Z,31.01
2023-05-20T16:21:58.581Z,30.98
2023-05-20T16:24:25.530Z,31.01
2023-05-20T16:26:53.421Z,31.14
2023-05-20T16:29:20.538Z,31.24
2023-05-20T16:31:47.808Z,31.38
2023-05-20T16:34:15.972Z,31.48
2023-05-20T16:36:43.085Z,31.35
2023-05-20T16:39:10.035Z,31.57
2023-05-20T16:41:37.064Z,31.66
2023-05-20T16:44:04.185Z,32.02
2023-05-20T16:46:31.175Z,32.11
2023-05-20T16:48:58.232Z,32.14
2023-05-20T16:51:25.120Z,32.35
2023-05-20T16:53:52.294Z,32.45
2023-05-20T16:56:21.808Z,32.50
2023-05-20T16:58:50.583Z,32.61
2023-05-20T17:01:19.327Z,32.57
2023-05-20T17:03:46.377Z,32.49
2023-05-20T17:06:13.515Z,32.59
2023-05-20T17:08:40.861Z,32.65
2023-05-20T17:11:07.752Z,32.61
2023-05-20T17:13:34.669Z,32.38
2023-05-20T17:16:01.736Z,32.53
2023-05-20T17:18:28.717Z,32.53
2023-05-20T17:20:55.891Z,32.46
2023-05-20T17:23:22.980Z,32.39
2023-05-20T17:25:49.939Z,32.38
2023-05-20T17:28:16.814Z,32.24
2023-05-20T17:30:43.755Z,32.33
2023-05-20T17:33:11.343Z,32.44
2023-05-20T17:35:38.358Z,32.40
2023-05-20T17:38:05.361Z,32.49
2023-05-20T17:40:32.396Z,32.38
2023-05-20T17:42:59.448Z,32.34
2023-05-20T17:45:26.459Z,32.26
2023-05-20T17:47:53.540Z,32.33
2023-05-20T17:50:20.604Z,32.37
2023-05-20T17:52:47.730Z,32.43
2023-05-20T17:55:14.996Z,32.51
2023-05-20T17:57:42.053Z,32.66
2023-05-20T18:00:09.569Z,32.59
2023-05-20T18:02:38.552Z,32.73
2023-05-20T18:05:06.481Z,32.87
2023-05-20T18:07:33.519Z,33.04
2023-05-20T18:10:00.470Z,33.16
2023-05-20T18:12:27.305Z,33.26
2023-05-20T18:14:54.208Z,33.34
2023-05-20T18:17:21.077Z,33.63
2023-05-20T18:19:48.082Z,33.73
2023-05-20T18:22:15.156Z,33.91
2023-05-20T18:24:42.680Z,34.10
2023-05-20T18:27:09.605Z,34.26
2023-05-20T18:29:36.500Z,34.38
2023-05-20T18:32:03.510Z,34.59
2023-05-20T18:34:33.219Z,34.68
2023-05-20T18:37:00.894Z,34.95
2023-05-20T18:39:27.784Z,35.22
2023-05-20T18:41:54.716Z,35.51
2023-05-20T18:44:21.758Z,35.73
2023-05-20T18:46:48.663Z,35.74
2023-05-20T18:49:15.997Z,36.04
2023-05-20T18:51:43.051Z,36.28
2023-05-20T18:54:10.109Z,36.25
2023-05-20T18:56:37.264Z,36.19
2023-05-20T18:59:04.147Z,36.23
2023-05-20T19:01:31.543Z,36.23
2023-05-20T19:03:58.477Z,36.19
2023-05-20T19:06:25.473Z,36.31
2023-05-20T19:08:52.425Z,36.46
2023-05-20T19:11:22.770Z,36.44
2023-05-20T19:13:49.709Z,36.45
2023-05-20T19:16:16.709Z,36.67
2023-05-20T19:18:43.817Z,36.73
2023-05-20T19:21:10.846Z,36.76
2023-05-20T19:23:37.925Z,36.91
2023-05-20T19:26:05.085Z,36.91
2023-05-20T19:28:31.953Z,36.88
2023-05-20T19:30:58.909Z,36.96
2023-05-20T19:33:26.239Z,37.07
2023-05-20T19:35:53.299Z,37.24
2023-05-20T19:38:20.347Z,37.30
2023-05-20T19:40:48.026Z,37.34
2023-05-20T19:43:14.964Z,37.44
2023-05-20T19:45:42.102Z,37.45
2023-05-20T19:48:09.224Z,37.45
2023-05-20T19:50:36.559Z,37.53
2023-05-20T19:53:06.563Z,37.54
2023-05-20T19:55:35.611Z,37.62
2023-05-20T19:58:03.133Z,37.75
2023-05-20T20:00:30.122Z,37.85
2023-05-20T20:02:57.763Z,37.85
2023-05-20T20:05:26.135Z,37.93
2023-05-20T20:07:53.343Z,37.97
2023-05-20T20:10:20.347Z,37.87
2023-05-20T20:12:47.510Z,37.95
2023-05-20T20:15:14.680Z,38.03
2023-05-20T20:17:45.701Z,38.14
2023-05-20T20:20:14.338Z,38.20
2023-05-20T20:22:41.954Z,38.31
2023-05-20T20:25:09.103Z,38.32
2023-05-20T20:27:36.585Z,38.32
2023-05-20T20:30:04.210Z,38.62
2023-05-20T20:32:31.315Z,38.66
2023-05-20T20:34:58.343Z,38.75
2023-05-20T20:37:27.146Z,38.81
2023-05-20T20:39:56.950Z,39.04
2023-05-20T20:42:23.905Z,39.21
2023-05-20T20:44:52.672Z,39.39
2023-05-20T20:47:19.785Z,39.60
2023-05-20T20:49:46.906Z,39.78
2023-05-20T20:52:13.855Z,39.73
2023-05-20T20:54:42.880Z,39.73
2023-05-20T20:57:09.984Z,39.82
2023-05-20T20:59:37.077Z,39.87
2023-05-20T21:02:04.754Z,39.98
2023-05-20T21:04:33.115Z,40.01
2023-05-20T21:07:02.237Z,40.17
2023-05-20T21:09:29.506Z,40.18
2023-05-20T21:11:57.363Z,40.22
2023-05-20T21:14:25.538Z,40.25
2023-05-20T21:16:52.713Z,40.40
2023-05-20T21:19:19.934Z,40.47
2023-05-20T21:21:47.105Z,40.52
2023-05-20T21:24:14.053Z,40.64
2023-05-20T21:26:41.008Z,40.69
2023-05-20T21:29:10.215Z,40.80
2023-05-20T21:31:37.339Z,40.91
2023-05-20T21:34:04.416Z,41.02
2023-05-20T21:36:32.522Z,41.27
2023-05-20T21:38:59.577Z,41.41
2023-05-20T21:41:27.415Z,41.49
2023-05-20T21:43:54.481Z,41.35
2023-05-20T21:46:21.597Z,41.20
2023-05-20T21:48:48.661Z,41.11
2023-05-20T21:51:15.842Z,41.08
2023-05-20T21:53:43.123Z,40.97
2023-05-20T21:56:10.157Z,41.07
2023-05-20T21:58:41.337Z,41.12
2023-05-20T22:01:10.260Z,41.30
2023-05-20T22:03:38.475Z,41.57
2023-05-20T22:06:06.345Z,41.69
2023-05-20T22:08:36.379Z,41.87
2023-05-20T22:11:07.634Z,41.95
2023-05-20T22:13:35.769Z,42.09
2023-05-20T22:16:05.085Z,42.19
2023-05-20T22:18:32.295Z,42.28
2023-05-20T22:21:00.322Z,42.34
2023-05-20T22:23:27.846Z,42.37
2023-05-20T22:25:55.470Z,42.33
2023-05-20T22:28:47.801Z,42.34
2023-05-20T22:31:14.810Z,42.45
2023-05-20T22:33:42.497Z,42.60
2023-05-20T22:36:09.872Z,42.60
2023-05-20T22:38:37.733Z,42.70
2023-05-20T22:41:04.985Z,42.69
2023-05-20T22:43:32.025Z,42.77
2023-05-20T22:45:59.037Z,42.93
2023-05-20T22:48:26.132Z,42.97
2023-05-20T22:50:54.392Z,43.05
2023-05-20T22:53:21.416Z,43.05
2023-05-20T22:55:48.764Z,43.31
2023-05-20T22:58:15.724Z,43.36
2023-05-20T23:00:44.589Z,43.39
2023-05-20T23:03:12.310Z,43.50
2023-05-20T23:05:39.341Z,43.58
2023-05-20T23:08:06.766Z,43.54
2023-05-20T23:10:33.751Z,43.60
2023-05-20T23:13:00.908Z,43.64
2023-05-20T23:15:28.130Z,43.73
2023-05-20T23:17:55.127Z,43.80
2023-05-20T23:20:22.581Z,43.85
2023-05-20T23:22:49.554Z,43.87
2023-05-20T23:25:16.510Z,43.92
2023-05-20T23:27:43.741Z,43.81
2023-05-20T23:30:11.236Z,43.80
2023-05-20T23:32:38.475Z,43.93
2023-05-20T23:35:06.837Z,43.94
2023-05-20T23:37:34.669Z,44.05
2023-05-20T23:40:01.670Z,44.10
2023-05-20T23:42:29.170Z,44.00
2023-05-20T23:44:56.187Z,43.95
2023-05-20T23:47:26.087Z,44.03
2023-05-20T23:49:56.536Z,44.07
2023-05-20T23:52:26.908Z,44.11
2023-05-20T23:54:53.921Z,44.15
2023-05-20T23:57:21.084Z,44.09
2023-05-20T23:59:51.422Z,44.12
